Time;durP1;ratioP1;P1;durP2;ratioP2;P2;SDS_P1;SDS_P2;PMS_P1;PMS_P2;Temp;Humidity;BMP_temperature;BMP_pressure;BME280_temperature;BME280_humidity;BME280_pressure;Samples;Min_cycle;Max_cycle;Signal;HPM_P1;HPM_P2
2022/01/24 07:37:49;;;;;;;8.43;5.17;;;-2.40;85.60;;;;;;5090050;28;20298;-53
2022/01/24 07:40:15;;;;;;;10.70;5.20;;;-2.50;84.60;;;;;;5090506;28;20103;-49
2022/01/24 07:45:17;;;;;;;11.20;5.33;;;-1.70;81.30;;;;;;5069108;28;20596;-45
2022/01/24 07:47:42;;;;;;;9.47;4.80;;;-0.70;78.60;;;;;;5065578;28;20116;-50
2022/01/24 07:50:09;;;;;;;11.77;5.93;;;0.60;68.90;;;;;;5084111;28;20021;-56
2022/01/24 07:52:36;;;;;;;15.40;7.90;;;3.20;58.70;;;;;;5073600;28;20032;-53
2022/01/24 07:55:02;;;;;;;9.77;5.87;;;4.90;50.50;;;;;;5073547;28;20107;-52
2022/01/24 07:57:27;;;;;;;12.38;6.13;;;6.40;47.10;;;;;;5076468;28;20056;-63
2022/01/24 07:59:53;;;;;;;10.80;5.35;;;7.50;44.80;;;;;;5074668;28;20102;-60
2022/01/24 08:02:19;;;;;;;10.82;6.38;;;8.50;43.50;;;;;;5075423;28;20029;-56
2022/01/24 08:04:44;;;;;;;16.52;8.02;;;9.10;40.40;;;;;;5069742;28;20017;-59
2022/01/24 08:07:10;;;;;;;14.30;7.88;;;9.50;39.30;;;;;;5070033;28;20025;-53
2022/01/24 08:09:36;;;;;;;19.02;8.90;;;9.50;39.20;;;;;;5069650;28;20104;-62
2022/01/24 08:12:02;;;;;;;11.50;7.25;;;9.50;37.60;;;;;;5089879;28;20048;-54
2022/01/24 08:14:27;;;;;;;16.20;8.85;;;9.10;38.30;;;;;;5076718;28;20025;-63
2022/01/24 08:16:54;;;;;;;16.73;10.00;;;9.60;37.70;;;;;;5069803;28;20033;-51
2022/01/24 08:19:20;;;;;;;12.13;7.47;;;9.20;37.10;;;;;;5069708;28;20471;-58
2022/01/24 08:21:45;;;;;;;15.35;8.95;;;9.40;38.00;;;;;;5069862;28;20073;-52
2022/01/24 08:24:12;;;;;;;14.05;8.80;;;9.30;37.50;;;;;;5079697;28;20113;-54
2022/01/24 08:26:37;;;;;;;16.65;9.18;;;9.20;38.00;;;;;;5089120;28;20103;-55
2022/01/24 08:29:04;;;;;;;15.75;8.82;;;9.00;37.60;;;;;;5089910;28;20103;-54
2022/01/24 08:31:30;;;;;;;15.82;9.77;;;9.30;37.40;;;;;;5089746;28;20036;-55
2022/01/24 08:33:56;;;;;;;41.30;19.65;;;10.00;37.60;;;;;;5089428;28;20020;-51
2022/01/24 08:36:22;;;;;;;31.77;15.65;;;10.10;36.60;;;;;;5089236;28;20052;-59
2022/01/24 08:38:50;;;;;;;23.30;13.45;;;9.70;37.00;;;;;;5078631;28;20024;-58
2022/01/24 08:41:28;;;;;;;21.95;11.77;;;9.00;37.00;;;;;;5071471;28;20466;-63
2022/01/24 08:44:10;;;;;;;14.43;8.85;;;8.80;37.50;;;;;;5085576;28;20119;-61
2022/01/24 08:46:36;;;;;;;12.55;7.28;;;8.50;37.90;;;;;;5077341;28;20423;-59
2022/01/24 08:49:02;;;;;;;11.98;6.88;;;7.50;38.70;;;;;;5076931;28;20150;-57
2022/01/24 08:51:27;;;;;;;9.00;6.25;;;7.60;39.60;;;;;;5076190;28;20032;-64
2022/01/24 08:53:53;;;;;;;8.93;5.60;;;7.30;39.20;;;;;;5073290;28;20103;-59
2022/01/24 08:56:19;;;;;;;8.07;5.30;;;6.70;39.80;;;;;;5073618;28;20028;-63
2022/01/24 08:58:45;;;;;;;10.43;6.05;;;6.00;39.90;;;;;;5073512;28;20480;-49
2022/01/24 09:01:10;;;;;;;8.65;5.68;;;5.90;41.70;;;;;;5073839;28;20021;-59
2022/01/24 09:03:39;;;;;;;6.80;5.05;;;6.00;42.10;;;;;;5074714;28;20028;-56
2022/01/24 09:06:06;;;;;;;8.80;5.30;;;6.00;41.80;;;;;;5074923;28;20470;-64
2022/01/24 09:08:31;;;;;;;22.38;12.23;;;5.90;41.30;;;;;;5074164;28;20096;-62
2022/01/24 09:10:58;;;;;;;14.20;9.40;;;5.20;41.50;;;;;;5074039;28;20155;-56
2022/01/24 09:13:24;;;;;;;14.23;8.30;;;4.90;42.90;;;;;;5073730;28;20028;-60
2022/01/24 09:15:50;;;;;;;11.98;7.82;;;5.20;43.70;;;;;;5073500;28;20040;-62
2022/01/24 09:18:18;;;;;;;13.57;6.90;;;5.80;43.40;;;;;;5073057;28;20020;-60
2022/01/24 09:20:44;;;;;;;10.40;6.43;;;5.90;41.60;;;;;;5073253;28;20048;-58
2022/01/24 09:23:10;;;;;;;8.70;5.53;;;5.60;41.90;;;;;;5075257;28;20048;-55
2022/01/24 09:25:36;;;;;;;10.40;6.50;;;5.60;42.10;;;;;;5059586;28;20053;-59
2022/01/24 09:28:03;;;;;;;8.85;5.47;;;5.60;42.00;;;;;;5060516;28;20056;-59
2022/01/24 09:30:30;;;;;;;10.20;5.57;;;5.50;42.70;;;;;;5058377;28;20033;-57
2022/01/24 09:32:56;;;;;;;10.15;6.55;;;5.60;42.60;;;;;;5061296;28;20035;-60
2022/01/24 09:35:22;;;;;;;10.77;5.97;;;5.40;42.30;;;;;;5068448;28;20063;-58
2022/01/24 09:37:49;;;;;;;10.35;5.85;;;5.40;41.50;;;;;;5064125;28;20497;-49
2022/01/24 09:40:16;;;;;;;11.18;7.38;;;5.80;41.90;;;;;;5065416;28;20078;-52
2022/01/24 09:42:43;;;;;;;16.45;9.43;;;5.90;41.80;;;;;;5062315;28;20074;-57
2022/01/24 09:45:10;;;;;;;17.65;8.45;;;5.80;41.60;;;;;;5074931;28;20186;-52
2022/01/24 09:47:36;;;;;;;11.48;6.80;;;6.20;42.00;;;;;;5075156;28;20025;-55
2022/01/24 09:50:04;;;;;;;9.90;6.65;;;6.50;40.30;;;;;;5074279;28;20090;-61
2022/01/24 09:52:30;;;;;;;9.07;6.40;;;6.50;40.10;;;;;;5074419;28;20381;-55
2022/01/24 09:54:56;;;;;;;9.45;6.70;;;6.60;39.30;;;;;;5074613;28;20029;-56
2022/01/24 09:57:22;;;;;;;10.43;6.45;;;6.60;40.10;;;;;;5074603;28;20086;-55
2022/01/24 09:59:47;;;;;;;9.30;6.45;;;6.90;38.80;;;;;;5069042;28;20316;-59
2022/01/24 10:02:13;;;;;;;10.25;6.53;;;7.40;38.10;;;;;;5057841;28;20385;-60
2022/01/24 10:04:39;;;;;;;13.20;7.60;;;7.80;37.20;;;;;;5055245;28;20035;-63
2022/01/24 10:07:15;;;;;;;10.60;7.57;;;7.40;38.10;;;;;;5064334;28;20440;-52
2022/01/24 10:09:51;;;;;;;12.63;8.30;;;7.70;38.50;;;;;;5054014;28;20025;-60
2022/01/24 10:17:52;;;;;;;13.32;8.90;;;7.10;38.10;;;;;;5074719;28;20048;-58
2022/01/24 10:20:23;;;;;;;12.20;7.82;;;7.00;37.70;;;;;;5073405;28;20021;-62
2022/01/24 10:23:01;;;;;;;9.48;7.03;;;6.80;39.20;;;;;;5061754;28;20036;-53
2022/01/24 10:25:27;;;;;;;10.15;6.97;;;6.70;39.90;;;;;;5074099;28;20101;-65
2022/01/24 10:28:03;;;;;;;11.85;7.50;;;6.60;40.00;;;;;;5073835;28;20025;-57
2022/01/24 10:30:31;;;;;;;9.98;7.00;;;6.50;39.50;;;;;;5073855;28;20086;-58
2022/01/24 10:32:58;;;;;;;11.02;7.43;;;6.00;38.60;;;;;;5073770;28;20035;-58
2022/01/24 10:35:46;;;;;;;12.07;7.68;;;5.70;39.40;;;;;;5073402;28;20429;-61
2022/01/24 10:41:09;;;;;;;;;;;6.50;40.30;;;;;;5074294;28;20436;-57
2022/01/24 10:43:37;;;;;;;8.40;5.65;;;6.80;38.90;;;;;;5073421;28;19904;-57
2022/01/24 10:46:04;;;;;;;7.50;5.68;;;7.00;38.90;;;;;;5072837;28;20048;-59
2022/01/24 10:48:32;;;;;;;7.30;5.50;;;7.20;37.80;;;;;;5073766;28;20024;-62
2022/01/24 10:51:15;;;;;;;9.52;6.65;;;7.10;35.90;;;;;;5073453;28;20021;-59
2022/01/24 10:53:57;;;;;;;12.65;8.52;;;7.40;37.40;;;;;;5073484;28;20075;-62
2022/01/24 10:56:27;;;;;;;9.93;6.70;;;7.90;40.40;;;;;;5072112;28;20028;-62
2022/01/24 10:58:57;;;;;;;8.43;5.10;;;8.30;37.10;;;;;;5081630;28;20028;-63
2022/01/24 11:01:27;;;;;;;6.03;4.75;;;8.10;33.70;;;;;;5082841;28;20031;-62
2022/01/24 11:04:13;;;;;;;5.88;4.88;;;8.20;35.20;;;;;;5053192;28;20576;-63
2022/01/24 11:06:44;;;;;;;9.18;6.72;;;8.00;34.50;;;;;;5057769;28;20402;-62
2022/01/24 11:09:18;;;;;;;11.73;7.65;;;7.80;34.00;;;;;;5049461;28;20482;-62
2022/01/24 11:11:45;;;;;;;12.65;6.90;;;7.60;37.30;;;;;;5049850;28;20025;-62
2022/01/24 11:14:16;;;;;;;10.13;6.45;;;7.70;35.50;;;;;;5050543;28;20017;-62
2022/01/24 11:16:43;;;;;;;10.95;6.95;;;7.70;36.90;;;;;;5050832;28;20028;-63
2022/01/24 11:19:16;;;;;;;16.67;8.18;;;8.10;34.10;;;;;;5051346;28;20075;-63
2022/01/24 11:21:44;;;;;;;10.85;6.53;;;7.90;33.30;;;;;;5057899;28;20032;-62
2022/01/24 11:24:17;;;;;;;10.45;6.72;;;7.60;34.60;;;;;;5064393;28;20090;-62
2022/01/24 11:26:44;;;;;;;7.57;5.35;;;8.00;35.20;;;;;;5059144;28;20113;-62
2022/01/24 11:29:11;;;;;;;7.95;5.00;;;8.20;34.00;;;;;;5057699;28;20520;-63
2022/01/24 11:32:03;;;;;;;7.57;5.30;;;8.50;35.30;;;;;;5062223;28;20119;-63
2022/01/24 11:34:37;;;;;;;6.20;4.43;;;8.70;32.80;;;;;;5012401;28;20045;-62
2022/01/24 11:37:05;;;;;;;6.57;4.32;;;9.00;34.00;;;;;;5052070;28;20499;-63
2022/01/24 11:39:31;;;;;;;5.90;4.72;;;9.20;33.50;;;;;;5053014;28;20021;-62
2022/01/24 11:41:57;;;;;;;6.70;4.80;;;9.40;32.90;;;;;;5053071;28;20024;-62
2022/01/24 11:44:24;;;;;;;11.10;6.18;;;9.50;33.00;;;;;;5053363;28;20375;-62
2022/01/24 11:46:58;;;;;;;8.25;5.45;;;9.40;32.00;;;;;;5054748;28;20060;-63
2022/01/24 11:49:34;;;;;;;11.93;6.90;;;9.20;33.90;;;;;;5057550;28;20032;-62
2022/01/24 11:52:03;;;;;;;11.13;7.13;;;9.30;33.00;;;;;;5037350;28;20123;-62
2022/01/24 11:54:49;;;;;;;9.88;6.78;;;9.00;33.40;;;;;;5072017;28;20107;-62
2022/01/24 11:57:24;;;;;;;12.13;7.53;;;9.00;34.10;;;;;;5058346;28;20106;-61
2022/01/24 12:00:05;;;;;;;11.30;7.30;;;9.00;33.80;;;;;;5053780;28;21015;-63
2022/01/24 12:02:44;;;;;;;11.35;7.63;;;8.80;33.10;;;;;;5057630;28;20025;-62
2022/01/24 12:05:11;;;;;;;16.02;8.73;;;8.30;33.40;;;;;;5054590;28;20025;-64
2022/01/24 12:07:44;;;;;;;14.77;8.18;;;8.10;34.10;;;;;;5041253;28;20040;-63
2022/01/24 12:10:26;;;;;;;13.07;7.78;;;8.40;35.20;;;;;;5055716;28;20029;-63
2022/01/24 12:12:55;;;;;;;13.18;6.95;;;8.40;34.00;;;;;;5060579;28;20052;-62
2022/01/24 12:15:36;;;;;;;11.48;7.88;;;8.80;33.90;;;;;;5055895;28;20102;-62
2022/01/24 12:18:03;;;;;;;9.82;6.57;;;8.80;33.70;;;;;;5063111;28;20101;-63
2022/01/24 12:20:31;;;;;;;9.15;5.43;;;8.80;35.70;;;;;;5059537;28;20025;-63
2022/01/24 12:22:58;;;;;;;8.95;6.70;;;9.20;33.80;;;;;;5062615;28;20064;-62
2022/01/24 12:25:57;;;;;;;12.98;7.78;;;9.40;33.70;;;;;;5065429;28;20563;-63
2022/01/24 12:28:25;;;;;;;20.17;12.25;;;9.20;33.60;;;;;;5052230;28;20093;-63
2022/01/24 12:31:21;;;;;;;8.82;7.38;;;8.70;34.00;;;;;;5063722;28;20040;-62
2022/01/24 12:33:53;;;;;;;8.45;6.47;;;8.40;35.00;;;;;;5056227;28;20029;-67
2022/01/24 12:36:47;;;;;;;8.23;5.97;;;8.70;33.60;;;;;;5064904;28;20401;-62
2022/01/24 12:39:17;;;;;;;9.88;5.63;;;8.80;33.60;;;;;;5076325;28;20016;-62
2022/01/24 12:41:48;;;;;;;7.15;5.22;;;8.90;35.00;;;;;;5076122;28;20021;-61
2022/01/24 12:47:04;;;;;;;6.47;5.00;;;9.60;33.90;;;;;;5075565;28;20097;-63
2022/01/24 12:49:31;;;;;;;6.20;5.15;;;9.60;33.50;;;;;;5075727;28;20017;-63
2022/01/24 12:52:02;;;;;;;7.63;4.72;;;9.70;31.50;;;;;;5075606;28;20470;-62
2022/01/24 12:54:33;;;;;;;6.47;5.10;;;9.80;32.90;;;;;;5075668;28;20027;-62
2022/01/24 12:57:01;;;;;;;6.40;4.65;;;9.90;33.10;;;;;;5075677;28;20021;-62
2022/01/24 12:59:27;;;;;;;5.85;4.75;;;9.90;32.40;;;;;;5075796;28;20020;-63
2022/01/24 13:01:56;;;;;;;7.10;5.25;;;10.10;32.50;;;;;;5075785;28;20020;-61
2022/01/24 13:04:38;;;;;;;8.00;5.60;;;9.90;31.60;;;;;;5075854;28;20025;-62
2022/01/24 13:07:05;;;;;;;6.72;5.38;;;9.70;30.90;;;;;;5075672;28;20028;-62
2022/01/24 13:09:33;;;;;;;6.72;4.82;;;9.20;33.00;;;;;;5075788;28;20021;-61
2022/01/24 13:12:04;;;;;;;11.48;7.30;;;9.00;32.30;;;;;;5075517;28;20047;-62
2022/01/24 13:14:43;;;;;;;14.93;9.52;;;9.40;32.40;;;;;;5075620;28;20032;-62
2022/01/24 13:22:50;;;;;;;8.32;5.60;;;10.20;33.30;;;;;;5075654;28;20028;-62
2022/01/24 13:25:16;;;;;;;6.28;5.05;;;10.30;32.20;;;;;;5075762;28;20127;-61
2022/01/24 13:27:48;;;;;;;8.60;5.88;;;10.30;31.80;;;;;;5075229;28;20514;-62
2022/01/24 13:30:31;;;;;;;7.38;5.85;;;10.20;30.40;;;;;;5075289;28;20104;-62
2022/01/24 13:32:58;;;;;;;6.53;5.32;;;9.80;30.40;;;;;;5075351;28;20054;-62
2022/01/24 13:35:26;;;;;;;6.85;5.70;;;9.80;31.50;;;;;;5057203;28;20433;-62
2022/01/24 13:37:55;;;;;;;7.60;5.28;;;10.10;31.90;;;;;;5075488;28;20033;-61
2022/01/24 13:40:41;;;;;;;7.57;5.32;;;10.30;32.90;;;;;;5075130;28;20043;-62
2022/01/24 13:43:10;;;;;;;7.75;5.22;;;10.30;31.40;;;;;;5075114;28;20025;-61
2022/01/24 13:45:40;;;;;;;8.43;6.38;;;10.40;30.70;;;;;;5074810;28;20029;-63
2022/01/24 13:48:17;;;;;;;10.00;6.93;;;10.40;31.30;;;;;;5075074;28;20031;-62
2022/01/24 13:50:55;;;;;;;6.68;5.60;;;10.20;29.90;;;;;;5074968;28;20494;-62
2022/01/24 13:53:47;;;;;;;8.43;6.22;;;9.90;30.60;;;;;;5075145;28;20044;-62
2022/01/24 13:56:40;;;;;;;6.72;5.25;;;10.00;31.10;;;;;;5074694;28;20029;-62
2022/01/24 13:59:12;;;;;;;7.85;5.75;;;9.80;32.10;;;;;;5074513;28;20108;-62
2022/01/24 14:01:51;;;;;;;12.82;8.82;;;10.00;31.80;;;;;;5074640;28;20024;-62
2022/01/24 14:04:25;;;;;;;12.73;7.70;;;10.10;31.60;;;;;;5074691;28;20020;-62
2022/01/24 14:07:03;;;;;;;12.85;8.52;;;10.30;31.10;;;;;;5074425;28;20025;-62
2022/01/24 14:09:42;;;;;;;17.40;11.48;;;10.20;31.80;;;;;;5074661;28;20106;-62
2022/01/24 14:12:13;;;;;;;13.65;9.18;;;10.20;31.20;;;;;;5074294;28;20029;-62
2022/01/24 14:14:48;;;;;;;12.88;9.02;;;10.30;32.50;;;;;;5074260;28;20025;-62
2022/01/24 14:19:56;;;;;;;9.98;6.18;;;9.50;32.50;;;;;;5074738;28;20117;-62
2022/01/24 14:22:24;;;;;;;8.10;6.13;;;9.60;32.00;;;;;;5074549;28;20021;-61
2022/01/24 14:24:56;;;;;;;10.00;6.55;;;9.80;32.50;;;;;;5074123;28;20047;-62
2022/01/24 14:27:38;;;;;;;7.30;6.10;;;9.90;31.90;;;;;;5074225;28;20394;-62
2022/01/24 14:30:07;;;;;;;11.13;7.20;;;9.70;31.30;;;;;;5074079;28;20036;-63
2022/01/24 14:32:38;;;;;;;13.82;8.70;;;9.60;31.60;;;;;;5074329;28;20036;-61
2022/01/24 14:35:06;;;;;;;12.10;8.20;;;9.40;31.20;;;;;;5074089;28;20126;-62
2022/01/24 14:37:52;;;;;;;10.98;7.68;;;8.90;32.10;;;;;;5073724;28;20060;-63
2022/01/24 14:40:42;;;;;;;10.88;7.15;;;8.40;32.70;;;;;;5073981;28;20028;-63
2022/01/24 14:45:52;;;;;;;10.38;6.80;;;7.90;32.40;;;;;;5073230;28;20031;-62
2022/01/24 14:48:17;;;;;;;8.13;6.25;;;7.90;34.00;;;;;;5073749;28;20470;-62
2022/01/24 14:50:43;;;;;;;7.45;5.93;;;7.80;33.00;;;;;;5073859;28;20482;-63
2022/01/24 14:53:12;;;;;;;7.75;5.20;;;7.70;32.90;;;;;;5073603;28;20021;-62
2022/01/24 14:55:37;;;;;;;7.38;5.05;;;7.80;33.80;;;;;;5073775;28;20486;-62
2022/01/24 14:58:03;;;;;;;6.25;4.90;;;7.90;33.20;;;;;;5073468;28;20089;-62
2022/01/24 15:00:29;;;;;;;8.82;5.75;;;7.70;32.90;;;;;;5073509;28;20024;-61
2022/01/24 15:02:55;;;;;;;9.93;7.05;;;7.60;33.40;;;;;;5073569;28;20070;-62
2022/01/24 15:05:21;;;;;;;12.20;7.78;;;7.30;34.00;;;;;;5073600;28;20027;-62
2022/01/24 15:07:47;;;;;;;15.93;9.30;;;6.90;34.10;;;;;;5073642;28;20058;-62
2022/01/24 15:10:15;;;;;;;13.57;8.57;;;6.70;34.20;;;;;;5073466;28;20052;-62
2022/01/24 15:12:47;;;;;;;14.07;8.38;;;6.60;34.50;;;;;;5073212;28;20031;-63
2022/01/24 15:15:16;;;;;;;11.90;8.38;;;6.60;35.20;;;;;;5073363;28;20021;-62
2022/01/24 15:25:51;;;;;;;11.43;8.18;;;6.30;35.60;;;;;;5073003;28;20028;-62
2022/01/24 15:28:18;;;;;;;13.25;7.63;;;6.10;35.60;;;;;;5073272;28;20382;-62
2022/01/24 15:30:44;;;;;;;15.15;8.77;;;6.10;36.00;;;;;;5073239;28;20021;-62
2022/01/24 15:33:10;;;;;;;14.57;9.20;;;6.00;35.80;;;;;;5073166;28;20025;-63
2022/01/24 15:35:36;;;;;;;13.93;9.05;;;5.80;36.00;;;;;;5073109;28;20048;-63
2022/01/24 15:38:04;;;;;;;14.32;8.05;;;5.60;36.60;;;;;;5073178;28;20029;-62
2022/01/24 15:40:31;;;;;;;12.65;8.55;;;5.60;36.60;;;;;;5073128;28;20032;-62
2022/01/24 15:43:10;;;;;;;16.27;8.52;;;5.50;36.90;;;;;;5073210;28;20109;-63
2022/01/24 15:45:42;;;;;;;12.43;8.40;;;5.40;37.70;;;;;;5073059;28;20075;-62
2022/01/24 15:48:10;;;;;;;13.35;7.80;;;5.10;37.10;;;;;;5073223;28;20036;-62
2022/01/24 15:50:37;;;;;;;12.98;7.85;;;5.00;37.50;;;;;;5073054;28;20016;-63
2022/01/24 15:53:04;;;;;;;13.38;8.55;;;5.00;37.50;;;;;;5072964;28;20055;-62
2022/01/24 15:55:34;;;;;;;11.35;7.32;;;5.00;37.40;;;;;;5072829;28;20029;-63
2022/01/24 15:58:01;;;;;;;13.98;8.90;;;5.00;37.70;;;;;;5074213;28;20150;-62
2022/01/24 16:00:32;;;;;;;12.40;7.80;;;5.00;37.90;;;;;;5077206;28;20031;-63
2022/01/24 16:03:02;;;;;;;15.05;9.07;;;4.80;38.80;;;;;;5076988;28;20020;-62
2022/01/24 16:05:28;;;;;;;28.65;13.93;;;4.80;38.60;;;;;;5076870;28;20466;-62
2022/01/24 16:07:57;;;;;;;52.63;26.15;;;4.70;38.90;;;;;;5076691;28;20024;-62
2022/01/24 16:10:28;;;;;;;328.92;169.25;;;4.40;40.70;;;;;;5076629;28;20025;-62
2022/01/24 16:12:54;;;;;;;255.50;137.80;;;4.00;42.10;;;;;;5076603;28;20025;-63
2022/01/24 16:15:24;;;;;;;255.32;133.68;;;3.50;43.10;;;;;;5076840;28;20017;-61
2022/01/24 16:17:52;;;;;;;221.05;121.97;;;3.40;43.40;;;;;;5076680;28;20035;-62
2022/01/24 16:28:11;;;;;;;244.77;119.22;;;1.40;49.10;;;;;;5076641;28;20067;-62
2022/01/24 16:30:40;;;;;;;271.67;134.07;;;1.00;50.60;;;;;;5076338;28;20486;-62
2022/01/24 16:33:06;;;;;;;236.88;117.32;;;0.90;50.70;;;;;;5076298;28;20087;-62
2022/01/24 16:35:33;;;;;;;330.52;156.55;;;0.70;51.40;;;;;;5076132;28;20021;-62
2022/01/24 16:38:00;;;;;;;128.35;67.72;;;0.40;52.30;;;;;;5076026;28;20043;-62
2022/01/24 16:40:31;;;;;;;170.80;99.85;;;0.30;52.00;;;;;;5076169;28;20093;-62
2022/01/24 16:48:21;;;;;;;154.25;84.93;;;-0.10;54.20;;;;;;5076457;28;20035;-62
2022/01/24 16:50:46;;;;;;;209.48;108.97;;;-0.40;55.30;;;;;;5076315;28;20099;-62
2022/01/24 16:53:15;;;;;;;122.95;66.78;;;-0.40;55.50;;;;;;5075696;28;20033;-63
2022/01/24 16:55:41;;;;;;;113.53;65.47;;;-0.60;55.30;;;;;;5075888;28;20067;-62
2022/01/24 16:58:08;;;;;;;136.88;70.93;;;-0.70;56.10;;;;;;5075869;28;20078;-62
2022/01/24 17:00:34;;;;;;;91.13;53.30;;;-0.60;56.20;;;;;;5075638;28;20016;-62
2022/01/24 17:03:00;;;;;;;98.18;56.30;;;-0.50;54.50;;;;;;5075727;28;20020;-61
2022/01/24 17:05:26;;;;;;;241.63;97.40;;;-0.60;55.90;;;;;;5075606;28;20493;-61
2022/01/24 17:07:51;;;;;;;269.35;101.22;;;-0.60;56.40;;;;;;5075306;28;20024;-61
2022/01/24 17:10:17;;;;;;;154.65;70.93;;;-0.60;56.00;;;;;;5075468;28;20528;-61
2022/01/24 17:12:45;;;;;;;122.90;64.10;;;-0.60;56.00;;;;;;5075737;28;20035;-62
2022/01/24 17:15:12;;;;;;;107.25;57.85;;;-0.70;56.80;;;;;;5075388;28;20031;-62
2022/01/24 17:17:38;;;;;;;183.93;83.50;;;-0.90;57.20;;;;;;5075580;28;20028;-61
2022/01/24 17:20:05;;;;;;;180.90;79.90;;;-0.90;57.10;;;;;;5075345;28;20108;-62
2022/01/24 17:22:31;;;;;;;153.63;68.35;;;-0.70;56.60;;;;;;5075126;28;20076;-61
2022/01/24 17:24:56;;;;;;;155.45;70.18;;;-0.40;56.40;;;;;;5075292;28;20017;-62
2022/01/24 17:27:22;;;;;;;171.40;81.50;;;-0.20;55.00;;;;;;5075428;28;20111;-62
2022/01/24 17:29:49;;;;;;;174.63;72.80;;;-0.20;55.30;;;;;;5075276;28;20359;-62
2022/01/24 17:32:15;;;;;;;164.32;73.10;;;-0.40;55.00;;;;;;5075172;28;20019;-62
2022/01/24 17:34:41;;;;;;;179.40;76.07;;;-0.30;54.80;;;;;;5075180;28;20025;-61
2022/01/24 17:37:07;;;;;;;192.45;85.50;;;0.00;54.40;;;;;;5074786;28;20422;-62
2022/01/24 17:39:33;;;;;;;134.55;61.97;;;-0.10;54.50;;;;;;5075032;28;20025;-61
2022/01/24 17:41:59;;;;;;;160.82;71.90;;;-0.30;55.00;;;;;;5075121;28;20091;-62
2022/01/24 17:44:25;;;;;;;182.27;82.05;;;-0.60;56.60;;;;;;5074964;28;20107;-61
2022/01/24 17:46:50;;;;;;;225.23;97.75;;;-0.70;56.90;;;;;;5074728;28;20024;-62
2022/01/24 17:49:16;;;;;;;245.00;111.15;;;-0.70;57.90;;;;;;5074917;28;20071;-62
2022/01/24 17:51:42;;;;;;;284.60;129.85;;;-0.50;57.10;;;;;;5074472;28;20031;-61
2022/01/24 17:54:08;;;;;;;356.42;159.40;;;-0.50;57.60;;;;;;5074671;28;20016;-62
2022/01/24 17:56:33;;;;;;;386.05;166.48;;;-0.60;57.90;;;;;;5074843;28;20028;-60
2022/01/24 17:58:59;;;;;;;439.17;199.98;;;-0.60;58.20;;;;;;5074615;28;20032;-61
2022/01/24 18:01:25;;;;;;;497.58;236.88;;;-0.60;58.80;;;;;;5074583;28;20025;-62
2022/01/24 18:03:51;;;;;;;372.63;166.93;;;-0.70;59.50;;;;;;5074703;28;20470;-61
2022/01/24 18:06:17;;;;;;;287.98;134.63;;;-0.70;59.10;;;;;;5074851;28;20052;-61
2022/01/24 18:08:43;;;;;;;265.63;125.35;;;-0.80;58.60;;;;;;5074414;28;20091;-61
2022/01/24 18:11:11;;;;;;;252.05;115.18;;;-0.90;59.20;;;;;;5074290;28;20107;-61
2022/01/24 18:13:38;;;;;;;403.67;192.07;;;-1.00;59.10;;;;;;5074390;28;20028;-61
2022/01/24 18:16:05;;;;;;;378.83;165.20;;;-1.00;59.60;;;;;;5074545;28;20169;-62
2022/01/24 18:18:31;;;;;;;309.73;150.85;;;-1.10;60.20;;;;;;5074177;28;20013;-62
2022/01/24 18:20:57;;;;;;;237.90;120.95;;;-1.00;59.50;;;;;;5073297;28;20029;-61
2022/01/24 18:23:23;;;;;;;213.73;96.60;;;-1.10;60.00;;;;;;5074177;28;20374;-62
2022/01/24 18:25:49;;;;;;;258.20;124.28;;;-1.10;59.30;;;;;;5073945;28;20024;-61
2022/01/24 18:28:15;;;;;;;268.95;115.97;;;-0.90;59.00;;;;;;5074042;28;20100;-61
2022/01/24 18:30:41;;;;;;;463.65;213.02;;;-0.80;58.40;;;;;;5074137;28;20017;-61
2022/01/24 18:33:08;;;;;;;481.88;215.27;;;-0.90;59.20;;;;;;5073925;28;20025;-61
2022/01/24 18:35:34;;;;;;;322.63;128.88;;;-1.10;60.60;;;;;;5073775;28;20535;-61
2022/01/24 18:37:59;;;;;;;334.20;131.15;;;-1.30;61.10;;;;;;5074082;28;20036;-61
2022/01/24 18:40:25;;;;;;;452.08;195.20;;;-1.20;60.80;;;;;;5073893;28;20486;-61
2022/01/24 18:42:54;;;;;;;481.67;219.52;;;-1.20;61.50;;;;;;5074073;28;20029;-62
2022/01/24 18:45:24;;;;;;;452.23;196.82;;;-1.30;62.90;;;;;;5073854;28;20029;-62
2022/01/24 18:47:51;;;;;;;547.35;250.93;;;-1.30;63.40;;;;;;5073601;28;20062;-62
2022/01/24 18:50:20;;;;;;;457.20;195.93;;;-1.60;65.70;;;;;;5073514;28;20443;-62
2022/01/24 18:52:46;;;;;;;411.02;172.32;;;-1.60;66.50;;;;;;5073643;28;20074;-61
2022/01/24 18:55:12;;;;;;;394.10;164.38;;;-1.50;65.60;;;;;;5073571;28;20025;-60
2022/01/24 18:57:37;;;;;;;380.80;150.02;;;-1.40;64.80;;;;;;5073628;28;20024;-61
2022/01/24 19:00:06;;;;;;;470.27;202.77;;;-1.30;63.50;;;;;;5073682;28;20374;-61
2022/01/24 19:02:32;;;;;;;430.13;171.93;;;-1.30;64.50;;;;;;5073319;28;20020;-61
2022/01/24 19:04:58;;;;;;;369.23;139.32;;;-1.30;64.70;;;;;;5073297;28;20027;-62
2022/01/24 19:07:23;;;;;;;407.20;156.43;;;-1.30;63.90;;;;;;5073420;28;20567;-61
2022/01/24 19:09:50;;;;;;;367.27;151.98;;;-1.20;63.80;;;;;;5073462;28;20025;-61
2022/01/24 19:12:15;;;;;;;357.70;135.73;;;-1.30;62.60;;;;;;5073416;28;20025;-62
2022/01/24 19:14:43;;;;;;;487.63;211.93;;;-1.30;63.10;;;;;;5073363;28;20083;-62
2022/01/24 19:17:12;;;;;;;390.23;153.03;;;-1.40;64.80;;;;;;5073138;28;20075;-61
2022/01/24 19:25:17;;;;;;;508.45;225.05;;;-1.40;66.00;;;;;;5073350;28;20027;-61
2022/01/24 19:27:43;;;;;;;422.88;179.82;;;-1.30;66.00;;;;;;5073102;28;20036;-61
2022/01/24 19:30:10;;;;;;;386.57;155.30;;;-1.20;65.50;;;;;;5073203;28;20021;-62
2022/01/24 19:32:36;;;;;;;358.60;143.80;;;-1.10;64.10;;;;;;5072969;28;20096;-62
2022/01/24 19:35:02;;;;;;;415.67;178.02;;;-0.90;63.10;;;;;;5073166;28;20112;-61
2022/01/24 19:37:28;;;;;;;459.50;211.23;;;-0.80;60.80;;;;;;5072932;28;20469;-61
2022/01/24 19:39:54;;;;;;;471.97;206.57;;;-1.00;62.80;;;;;;5073126;28;20099;-62
2022/01/24 19:42:20;;;;;;;428.10;180.53;;;-1.20;64.70;;;;;;5073047;28;20478;-62
2022/01/24 19:44:45;;;;;;;459.73;200.17;;;-1.20;64.80;;;;;;5073069;28;20100;-61
2022/01/24 19:47:11;;;;;;;523.47;227.90;;;-1.30;64.50;;;;;;5072924;28;20078;-62
2022/01/24 19:49:37;;;;;;;403.20;170.53;;;-1.50;66.60;;;;;;5073147;28;20020;-61
2022/01/24 19:52:04;;;;;;;384.20;149.83;;;-1.60;66.40;;;;;;5072928;28;20020;-62
2022/01/24 19:54:32;;;;;;;337.70;135.17;;;-1.40;65.20;;;;;;5072898;28;20025;-61
2022/01/24 19:57:08;;;;;;;304.33;124.10;;;-1.20;63.60;;;;;;5072984;28;20159;-61
2022/01/24 19:59:42;;;;;;;264.13;114.47;;;-1.10;61.50;;;;;;5072814;28;20112;-61
2022/01/24 20:02:08;;;;;;;263.52;114.75;;;-1.10;61.40;;;;;;5072719;28;20059;-61
2022/01/24 20:04:35;;;;;;;247.47;104.50;;;-0.90;61.30;;;;;;5072845;28;20158;-62
2022/01/24 20:07:00;;;;;;;274.47;117.20;;;-0.90;60.60;;;;;;5072696;28;20032;-61
2022/01/24 20:09:27;;;;;;;351.97;158.47;;;-0.90;60.40;;;;;;5072746;28;20020;-62
2022/01/24 20:11:54;;;;;;;403.87;189.73;;;-1.00;62.20;;;;;;5072787;28;20020;-62
2022/01/24 20:14:20;;;;;;;401.03;184.63;;;-1.30;64.30;;;;;;5072717;28;20020;-60
2022/01/24 20:16:47;;;;;;;316.37;139.23;;;-1.50;66.10;;;;;;5072745;28;20029;-61
2022/01/24 20:19:13;;;;;;;452.23;202.77;;;-1.50;66.70;;;;;;5072831;28;20027;-61
2022/01/24 20:21:40;;;;;;;367.43;155.00;;;-1.40;64.80;;;;;;5072691;28;20028;-61
2022/01/24 20:24:06;;;;;;;344.90;144.47;;;-1.40;64.60;;;;;;5072728;28;20025;-62
2022/01/24 20:26:32;;;;;;;348.73;148.83;;;-1.30;64.20;;;;;;5072643;28;20085;-61
2022/01/24 20:29:00;;;;;;;299.30;130.87;;;-1.30;61.90;;;;;;5072593;28;20047;-62
2022/01/24 20:31:32;;;;;;;282.97;121.03;;;-1.30;61.70;;;;;;5072479;28;20027;-61
2022/01/24 20:33:58;;;;;;;306.27;124.57;;;-1.40;61.30;;;;;;5072603;28;20032;-61
2022/01/24 20:36:25;;;;;;;340.13;134.87;;;-1.40;61.40;;;;;;5072361;28;20049;-61
2022/01/24 20:38:54;;;;;;;275.73;114.60;;;-1.40;60.30;;;;;;5072879;28;20056;-61
2022/01/24 20:41:21;;;;;;;269.53;109.73;;;-1.40;61.20;;;;;;5072605;28;20024;-61
2022/01/24 20:43:47;;;;;;;246.80;104.50;;;-1.40;62.00;;;;;;5073058;28;20065;-61
2022/01/24 20:46:15;;;;;;;373.70;164.60;;;-1.30;61.20;;;;;;5076065;28;20041;-61
2022/01/24 20:48:40;;;;;;;365.47;150.57;;;-1.30;60.30;;;;;;5076068;28;20023;-62
2022/01/24 20:51:13;;;;;;;345.55;146.38;;;-1.60;61.00;;;;;;5075969;28;20475;-61
2022/01/24 20:53:44;;;;;;;373.97;154.60;;;-1.70;62.70;;;;;;5076271;28;20382;-62
2022/01/24 20:56:11;;;;;;;366.43;155.60;;;-1.70;64.00;;;;;;5076133;28;20078;-61
2022/01/24 20:58:37;;;;;;;386.50;158.63;;;-1.70;63.70;;;;;;5076001;28;20028;-61
2022/01/24 21:01:03;;;;;;;349.43;137.63;;;-1.80;64.70;;;;;;5075885;28;20031;-61
2022/01/24 21:03:29;;;;;;;299.67;121.77;;;-1.80;64.60;;;;;;5075806;28;20095;-61
2022/01/24 21:05:55;;;;;;;338.60;133.17;;;-1.80;63.20;;;;;;5075697;28;20486;-61
2022/01/24 21:08:21;;;;;;;320.17;128.77;;;-1.90;62.60;;;;;;5075724;28;20096;-61
2022/01/24 21:10:47;;;;;;;249.87;102.93;;;-2.00;62.70;;;;;;5075707;28;20028;-61
2022/01/24 21:13:29;;;;;;;214.23;89.83;;;-2.00;63.60;;;;;;5075317;28;20071;-61